Time;durP1;ratioP1;P1;durP2;ratioP2;P2;SDS_P1;SDS_P2;PMS_P1;PMS_P2;Temp;Humidity;BMP_temperature;BMP_pressure;BME280_temperature;BME280_humidity;BME280_pressure;Samples;Min_cycle;Max_cycle;Signal;HPM_P1;HPM_P2
2022/02/20 00:05:04;;;;;;;79.57;27.67;;;;;;;-1.70;60.65;98986.27;4262309;82;21161;-89
2022/02/20 00:11:06;;;;;;;105.60;37.00;;;;;;;-1.80;60.36;98987.78;4263307;82;21054;-89
2022/02/20 00:17:07;;;;;;;92.93;32.67;;;;;;;-1.89;60.31;98996.25;4263411;83;21058;-88
2022/02/20 00:23:09;;;;;;;74.83;28.43;;;;;;;-2.03;61.19;98997.56;4263159;82;21118;-88
2022/02/20 00:29:10;;;;;;;93.27;33.63;;;;;;;-2.13;61.86;98991.01;4262016;83;21513;-89
2022/02/20 00:35:12;;;;;;;79.70;30.63;;;;;;;-2.19;61.38;98983.33;4260871;83;21046;-89
2022/02/20 00:41:14;;;;;;;74.53;29.00;;;;;;;-2.19;60.97;98971.26;4263639;83;21035;-88
2022/02/20 00:47:16;;;;;;;78.60;26.90;;;;;;;-2.23;62.38;98956.86;4262701;83;21015;-88
2022/02/20 00:53:17;;;;;;;61.37;22.20;;;;;;;-2.19;61.76;98949.27;4263884;83;22563;-87
2022/02/20 00:59:19;;;;;;;48.33;15.43;;;;;;;-2.13;62.00;98950.77;4262463;82;21567;-88
2022/02/20 01:05:20;;;;;;;32.63;10.83;;;;;;;-1.94;62.38;98942.14;4260272;82;21109;-88
2022/02/20 01:11:22;;;;;;;20.27;6.83;;;;;;;-1.70;60.91;98938.77;4260590;82;21066;-87
2022/02/20 01:17:23;;;;;;;14.40;5.40;;;;;;;-1.29;61.36;98932.08;4244785;82;21188;-88
2022/02/20 01:23:25;;;;;;;17.70;5.37;;;;;;;-1.06;60.55;98922.19;4262758;82;21053;-88
2022/02/20 01:29:27;;;;;;;22.90;5.20;;;;;;;-0.79;60.64;98923.48;4262286;82;21573;-87
2022/02/20 01:35:28;;;;;;;18.47;5.33;;;;;;;-0.54;59.93;98908.94;4263083;83;21565;-88
2022/02/20 01:41:30;;;;;;;12.30;4.65;;;;;;;-0.44;60.23;98891.20;4262139;82;21154;-88
2022/02/20 01:47:31;;;;;;;17.03;4.23;;;;;;;-0.41;59.67;98875.80;4151791;84;21095;-88
2022/02/20 01:53:33;;;;;;;15.27;4.00;;;;;;;-0.22;59.61;98868.33;4263273;82;21677;-87
2022/02/20 01:59:34;;;;;;;16.07;4.07;;;;;;;-0.04;59.67;98859.27;4261866;83;21038;-89
2022/02/20 02:05:54;;;;;;;11.53;3.83;;;;;;;0.23;59.44;98852.09;4262820;82;21106;-87
2022/02/20 02:11:55;;;;;;;12.25;3.55;;;;;;;0.54;59.34;98837.48;4262697;82;21045;-88
2022/02/20 02:17:58;;;;;;;12.30;3.37;;;;;;;0.80;58.88;98830.23;4213867;82;21056;-88
2022/02/20 02:24:09;;;;;;;8.75;3.70;;;;;;;0.97;58.53;98832.16;4229337;83;21069;-89
2022/02/20 02:30:26;;;;;;;11.68;3.08;;;;;;;0.97;58.38;98833.52;4241134;82;21081;-89
2022/02/20 02:36:28;;;;;;;14.87;3.60;;;;;;;1.01;58.27;98827.72;4262995;83;21112;-88
2022/02/20 02:42:29;;;;;;;14.38;3.15;;;;;;;1.00;58.28;98824.22;4263622;83;21076;-87
2022/02/20 02:48:31;;;;;;;12.73;3.15;;;;;;;0.88;58.18;98801.16;4258885;83;21091;-88
2022/02/20 02:54:34;;;;;;;9.80;2.95;;;;;;;1.11;57.77;98807.20;4261322;82;21088;-88
2022/02/20 03:00:38;;;;;;;10.03;2.85;;;;;;;1.33;57.41;98797.02;4266457;82;21061;-88
2022/02/20 03:06:40;;;;;;;8.15;2.62;;;;;;;1.46;56.91;98787.97;4265248;83;21088;-88
2022/02/20 03:12:44;;;;;;;8.73;2.33;;;;;;;1.46;56.77;98770.43;4247872;83;21271;-88
2022/02/20 03:18:46;;;;;;;5.20;2.17;;;;;;;1.53;56.42;98761.85;4156966;84;21079;-90
2022/02/20 03:24:49;;;;;;;6.58;2.20;;;;;;;1.59;56.43;98737.63;4154785;84;21052;-88
2022/02/20 03:30:52;;;;;;;11.75;2.27;;;;;;;1.65;56.08;98726.89;4166959;83;33882;-88
2022/02/20 03:36:55;;;;;;;5.17;1.65;;;;;;;1.67;56.02;98725.22;4218533;83;21061;-89
2022/02/20 03:43:01;;;;;;;6.97;2.35;;;;;;;1.64;56.00;98721.27;4201690;83;21010;-89
2022/02/20 03:49:04;;;;;;;4.30;0.95;;;;;;;1.61;55.92;98715.17;4207687;83;21088;-89
2022/02/20 03:55:23;;;;;;;9.25;3.30;;;;;;;1.60;55.80;98713.02;4135412;83;21093;-88
2022/02/20 04:01:26;;;;;;;16.70;4.72;;;;;;;1.69;55.67;98703.56;4193523;84;21592;-88
2022/02/20 04:07:30;;;;;;;8.18;2.50;;;;;;;1.80;54.98;98694.54;4138793;85;21069;-89
2022/02/20 04:13:31;;;;;;;9.10;2.27;;;;;;;1.78;55.14;98696.21;4215701;83;21074;-89
2022/02/20 04:19:33;;;;;;;5.80;2.17;;;;;;;1.79;55.30;98674.84;4207902;83;21101;-88
2022/02/20 04:25:36;;;;;;;6.83;1.92;;;;;;;1.76;55.26;98649.06;4146684;85;21078;-89
2022/02/20 04:31:39;;;;;;;8.45;1.77;;;;;;;1.94;54.95;98640.56;4205787;83;21220;-90
2022/02/20 04:37:41;;;;;;;6.00;1.85;;;;;;;2.12;54.55;98642.58;4211302;83;21073;-88
2022/02/20 04:43:44;;;;;;;7.70;1.67;;;;;;;2.18;53.84;98634.51;4205036;83;20998;-89
2022/02/20 04:49:45;;;;;;;7.53;1.87;;;;;;;2.26;54.14;98639.86;4210930;83;21033;-91
2022/02/20 04:55:51;;;;;;;6.63;1.73;;;;;;;2.35;53.69;98624.95;4218408;83;21045;-87
2022/02/20 05:01:53;;;;;;;5.60;1.70;;;;;;;2.49;53.35;98615.44;4212782;83;21072;-86
2022/02/20 05:07:56;;;;;;;6.97;1.87;;;;;;;2.62;52.84;98605.47;4212467;83;21733;-89
2022/02/20 05:14:00;;;;;;;7.78;1.65;;;;;;;2.76;52.63;98589.75;4202056;83;21046;-89
2022/02/20 05:20:08;;;;;;;8.88;1.95;;;;;;;2.86;51.32;98578.53;4174476;84;21072;-89
2022/02/20 05:26:16;;;;;;;5.60;1.90;;;;;;;2.85;51.56;98573.67;4215661;84;21726;-86
2022/02/20 05:32:23;;;;;;;7.58;1.87;;;;;;;2.77;52.05;98551.58;4288469;81;58938;-88
2022/02/20 05:38:22;;;;;;;6.55;2.00;;;;;;;2.73;52.12;98524.20;4291985;81;21583;-88
2022/02/20 05:44:25;;;;;;;9.13;2.65;;;;;;;2.80;51.52;98511.71;4211959;83;21049;-88
2022/02/20 05:50:28;;;;;;;5.78;2.35;;;;;;;2.93;51.21;98500.35;4293386;82;21062;-89
2022/02/20 05:56:30;;;;;;;3.90;1.55;;;;;;;2.96;51.32;98491.02;4295853;81;20996;-88
2022/02/20 06:02:34;;;;;;;6.12;1.57;;;;;;;2.90;51.60;98485.61;4295782;81;21030;-88
2022/02/20 06:08:36;;;;;;;5.62;1.30;;;;;;;2.95;51.78;98472.42;4291524;82;21026;-87
2022/02/20 06:14:39;;;;;;;7.03;1.45;;;;;;;3.00;52.12;98469.50;4303901;81;21142;-87
2022/02/20 06:20:58;;;;;;;6.12;1.60;;;;;;;2.99;52.14;98457.89;4322914;80;21207;-87
2022/02/20 06:27:05;;;;;;;4.08;2.77;;;;;;;2.94;52.37;98451.94;4323357;80;21561;-88
2022/02/20 06:33:07;;;;;;;7.90;2.12;;;;;;;3.07;52.15;98447.53;4321316;81;21061;-90
2022/02/20 06:39:11;;;;;;;7.70;1.77;;;;;;;3.32;52.01;98444.81;4324182;81;21531;-89
2022/02/20 06:45:13;;;;;;;10.30;2.40;;;;;;;3.37;52.09;98457.53;4300497;81;21577;-89
2022/02/20 06:51:22;;;;;;;9.00;2.72;;;;;;;3.49;52.30;98455.38;4276068;81;21096;-89
2022/02/20 06:57:36;;;;;;;4.72;1.80;;;;;;;3.65;52.46;98471.91;4321240;81;21040;-88
2022/02/20 07:03:37;;;;;;;5.33;2.08;;;;;;;3.82;52.75;98477.64;4324650;81;21054;-90
2022/02/20 07:09:40;;;;;;;7.95;1.77;;;;;;;4.14;53.80;98486.09;4307711;81;22416;-91
2022/02/20 07:15:41;;;;;;;8.90;1.98;;;;;;;4.49;54.33;98508.20;4322198;81;21061;-90
2022/02/20 07:21:43;;;;;;;7.62;1.70;;;;;;;4.74;54.94;98502.06;4322645;81;22067;-93
2022/02/20 07:27:45;;;;;;;8.45;2.40;;;;;;;4.83;55.80;98506.19;4319180;81;21044;-92
2022/02/20 07:33:47;;;;;;;8.40;2.00;;;;;;;4.92;57.24;98506.00;4324914;81;21580;-91
2022/02/20 07:39:48;;;;;;;3.27;1.60;;;;;;;5.15;58.32;98508.34;4320313;81;21017;-90
2022/02/20 07:45:50;;;;;;;4.95;1.80;;;;;;;5.28;58.65;98507.69;4320340;81;21055;-90
2022/02/20 07:51:51;;;;;;;10.72;2.77;;;;;;;5.38;58.68;98509.28;4316870;81;21048;-90
2022/02/20 07:57:53;;;;;;;7.60;2.70;;;;;;;5.10;59.44;98518.66;4323465;81;21073;-92
2022/02/20 08:03:54;;;;;;;8.58;2.08;;;;;;;4.92;59.79;98514.73;4240888;82;22092;-90
2022/02/20 08:09:56;;;;;;;4.78;1.30;;;;;;;4.87;60.23;98523.88;4162552;83;21564;-91
2022/02/20 08:15:58;;;;;;;4.45;1.72;;;;;;;4.87;61.81;98513.63;4270281;82;21041;-90
2022/02/20 08:22:00;;;;;;;2.92;1.10;;;;;;;4.80;64.11;98518.29;4181818;83;21073;-92
2022/02/20 08:28:01;;;;;;;3.55;1.32;;;;;;;4.79;64.16;98512.07;4241933;82;21404;-90
2022/02/20 08:34:05;;;;;;;3.77;1.32;;;;;;;4.94;66.95;98523.28;4224482;83;21565;-90
2022/02/20 08:40:09;;;;;;;4.22;1.65;;;;;;;5.24;67.25;98522.52;4229360;83;21062;-90
2022/02/20 08:46:12;;;;;;;4.70;1.90;;;;;;;5.21;67.02;98521.06;4221914;83;21054;-91
2022/02/20 08:52:13;;;;;;;4.35;1.75;;;;;;;5.06;69.89;98520.51;4220067;83;21102;-91
2022/02/20 08:58:14;;;;;;;3.27;1.35;;;;;;;4.71;71.56;98526.58;4222304;83;21071;-90
2022/02/20 09:04:17;;;;;;;3.52;1.95;;;;;;;4.46;70.77;98530.54;4221632;83;21438;-91
2022/02/20 09:10:18;;;;;;;5.33;1.85;;;;;;;4.51;74.50;98533.59;4221457;83;21014;-92
2022/02/20 09:16:20;;;;;;;4.55;1.67;;;;;;;4.45;71.63;98532.24;4321670;81;21699;-89
2022/02/20 09:22:22;;;;;;;4.37;1.67;;;;;;;4.43;74.48;98538.59;4314153;81;21140;-90
2022/02/20 09:28:23;;;;;;;4.22;1.80;;;;;;;4.41;75.61;98538.95;4322453;81;21089;-92
2022/02/20 09:34:24;;;;;;;5.60;2.60;;;;;;;4.39;74.95;98543.91;4315382;81;21006;-90
2022/02/20 09:40:27;;;;;;;3.55;1.92;;;;;;;4.30;75.73;98543.27;4322143;81;21018;-89
2022/02/20 09:46:29;;;;;;;5.53;2.87;;;;;;;4.14;78.34;98547.84;4240398;83;22063;-90
2022/02/20 09:52:30;;;;;;;6.58;3.20;;;;;;;3.91;75.28;98549.48;4220563;83;21090;-89
2022/02/20 09:58:33;;;;;;;8.78;3.90;;;;;;;3.90;78.60;98553.89;4221385;83;21077;-90
2022/02/20 10:04:44;;;;;;;7.40;3.25;;;;;;;3.87;77.96;98552.63;4315170;81;21078;-90
2022/02/20 10:10:46;;;;;;;7.47;3.80;;;;;;;3.98;79.45;98544.81;4326059;81;21623;-90
2022/02/20 10:16:48;;;;;;;6.47;3.55;;;;;;;4.12;78.63;98552.03;4319955;81;21091;-90
2022/02/20 10:23:14;;;;;;;9.43;4.17;;;;;;;4.09;80.30;98544.01;4227851;82;21128;-90
2022/02/20 10:29:35;;;;;;;8.63;3.87;;;;;;;4.08;79.51;98551.13;4174820;83;21137;-89
2022/02/20 10:35:41;;;;;;;8.68;4.00;;;;;;;4.14;80.56;98539.71;4231553;82;21045;-89
2022/02/20 10:41:43;;;;;;;7.80;4.67;;;;;;;4.18;80.30;98543.30;4186258;84;21106;-90
2022/02/20 10:47:44;;;;;;;11.10;3.80;;;;;;;4.27;84.91;98547.23;4264074;82;21065;-89
2022/02/20 10:53:48;;;;;;;9.23;3.70;;;;;;;4.09;83.91;98541.86;4181723;84;22247;-89
2022/02/20 10:59:50;;;;;;;6.70;3.55;;;;;;;4.00;84.11;98540.66;4208994;83;21075;-89
2022/02/20 11:05:53;;;;;;;7.15;3.10;;;;;;;4.05;84.27;98538.27;4191697;84;21113;-91
2022/02/20 11:11:55;;;;;;;10.85;3.72;;;;;;;4.08;84.67;98527.55;4176132;84;21077;-89
2022/02/20 11:18:00;;;;;;;9.50;4.40;;;;;;;4.09;84.83;98519.62;4188030;84;21708;-90
2022/02/20 11:24:03;;;;;;;10.00;4.58;;;;;;;4.12;83.69;98519.53;4189800;83;21644;-90
2022/02/20 11:30:05;;;;;;;8.70;4.28;;;;;;;4.15;84.43;98521.55;4181397;84;21063;-89
2022/02/20 11:36:07;;;;;;;9.83;4.50;;;;;;;4.16;83.32;98520.41;4275902;82;21047;-89
2022/02/20 11:42:15;;;;;;;7.47;4.55;;;;;;;4.20;82.46;98523.98;4274566;82;21060;-90
2022/02/20 11:48:16;;;;;;;11.30;3.33;;;;;;;4.28;82.09;98526.56;4276506;82;21028;-89
2022/02/20 11:54:22;;;;;;;7.17;3.30;;;;;;;4.49;82.76;98512.81;4276727;82;20998;-90
2022/02/20 12:00:24;;;;;;;6.07;3.03;;;;;;;4.83;81.51;98517.59;4276585;82;21017;-91
2022/02/20 12:06:28;;;;;;;8.15;3.22;;;;;;;5.15;80.65;98510.26;4276389;82;21042;-89
2022/02/20 12:12:31;;;;;;;4.03;2.65;;;;;;;5.40;79.54;98515.72;4275424;82;22210;-90
2022/02/20 12:18:33;;;;;;;8.33;2.42;;;;;;;5.69;79.16;98510.58;4292469;81;21584;-89
2022/02/20 12:24:49;;;;;;;7.03;2.80;;;;;;;6.00;78.12;98501.00;4295460;82;21042;-91
2022/02/20 12:30:53;;;;;;;14.98;3.25;;;;;;;6.44;76.19;98485.19;4292612;81;21840;-91
2022/02/20 12:36:56;;;;;;;8.73;2.65;;;;;;;7.12;77.42;98485.23;4295005;82;21158;-90
2022/02/20 12:43:07;;;;;;;6.45;2.35;;;;;;;7.31;72.95;98481.08;4294712;82;21109;-90
2022/02/20 12:49:10;;;;;;;10.20;2.52;;;;;;;7.40;73.86;98493.86;4288078;82;21537;-90
2022/02/20 12:55:17;;;;;;;4.62;2.40;;;;;;;7.48;72.15;98488.73;4297549;81;21124;-91
2022/02/20 13:01:19;;;;;;;3.65;2.05;;;;;;;7.59;73.37;98485.02;4276421;82;21086;-90
2022/02/20 13:07:21;;;;;;;6.28;2.42;;;;;;;7.50;72.01;98485.08;4294055;82;21073;-90
2022/02/20 13:13:27;;;;;;;7.22;2.92;;;;;;;7.40;70.97;98470.70;4294142;82;21022;-90
2022/02/20 13:19:35;;;;;;;4.22;2.00;;;;;;;7.39;70.27;98480.04;4309688;81;21621;-90
2022/02/20 13:25:36;;;;;;;5.53;2.27;;;;;;;7.33;70.76;98489.67;4313214;81;21042;-90
2022/02/20 13:31:38;;;;;;;12.13;4.50;;;;;;;7.36;71.10;98495.16;4214363;83;21629;-92
2022/02/20 13:37:42;;;;;;;7.37;2.60;;;;;;;7.47;70.49;98491.25;4204031;83;21571;-90
2022/02/20 13:43:51;;;;;;;5.97;2.35;;;;;;;7.64;69.76;98482.55;4312604;81;21069;-91
2022/02/20 13:49:52;;;;;;;5.65;2.15;;;;;;;7.97;69.79;98475.22;4310481;81;21069;-90
2022/02/20 13:55:55;;;;;;;4.87;2.20;;;;;;;8.44;66.02;98473.88;4308040;81;21584;-90
2022/02/20 14:02:01;;;;;;;4.25;1.90;;;;;;;8.51;67.54;98449.38;4310492;81;21085;-92
2022/02/20 14:08:08;;;;;;;4.37;1.62;;;;;;;8.56;66.68;98447.69;4312187;81;21085;-91
2022/02/20 14:14:18;;;;;;;9.05;2.00;;;;;;;8.64;64.89;98440.58;4313849;81;21018;-92
2022/02/20 14:20:29;;;;;;;7.25;2.22;;;;;;;8.57;65.63;98443.79;4239272;82;21101;-91
2022/02/20 14:26:31;;;;;;;4.05;1.92;;;;;;;8.29;65.23;98452.47;4190842;84;21795;-91
2022/02/20 14:32:33;;;;;;;6.40;2.30;;;;;;;8.09;64.99;98462.51;4185585;84;21609;-90
2022/02/20 14:38:39;;;;;;;6.00;2.20;;;;;;;7.90;62.50;98449.25;4238197;83;21053;-92
2022/02/20 14:44:44;;;;;;;6.87;2.15;;;;;;;7.70;63.60;98442.38;4169838;84;21319;-90
2022/02/20 14:50:43;;;;;;;6.62;2.98;;;;;;;7.58;63.63;98439.09;4182373;84;21079;-90
2022/02/20 14:56:45;;;;;;;6.53;2.70;;;;;;;7.52;62.84;98436.45;4176002;84;21110;-91
2022/02/20 15:02:46;;;;;;;4.15;2.12;;;;;;;7.50;62.71;98434.69;4182699;84;21069;-90
2022/02/20 15:08:47;;;;;;;6.37;2.20;;;;;;;7.58;61.83;98428.95;4181643;84;21023;-91
2022/02/20 15:14:49;;;;;;;8.93;2.70;;;;;;;7.72;61.75;98431.10;4258942;81;21054;-90
2022/02/20 15:20:51;;;;;;;6.97;3.12;;;;;;;7.76;61.67;98426.47;4172136;84;21138;-90
2022/02/20 15:26:53;;;;;;;6.15;2.02;;;;;;;7.71;61.17;98433.60;4174176;84;22235;-90
2022/02/20 15:32:54;;;;;;;8.45;2.30;;;;;;;7.67;60.42;98432.78;4177121;83;21042;-91
2022/02/20 15:38:57;;;;;;;5.62;2.40;;;;;;;7.54;59.46;98423.25;4176442;84;21101;-90
2022/02/20 15:44:58;;;;;;;9.70;3.65;;;;;;;7.38;60.37;98422.06;4176020;84;21601;-89
2022/02/20 15:51:00;;;;;;;11.80;3.27;;;;;;;7.30;60.34;98424.47;4179860;84;21031;-91
2022/02/20 15:57:03;;;;;;;8.38;2.70;;;;;;;7.20;59.82;98424.31;4168138;84;21062;-90
2022/02/20 16:03:04;;;;;;;8.08;2.35;;;;;;;7.06;59.69;98425.46;4276076;82;21053;-91
2022/02/20 16:09:06;;;;;;;12.37;3.05;;;;;;;6.87;59.26;98412.73;4268872;82;21106;-90
2022/02/20 16:15:10;;;;;;;8.15;2.92;;;;;;;6.73;59.22;98408.41;4276039;82;21076;-89
2022/02/20 16:21:11;;;;;;;14.28;6.20;;;;;;;6.59;59.34;98404.66;4309795;81;21078;-90
2022/02/20 16:27:13;;;;;;;16.27;7.75;;;;;;;6.32;61.67;98395.08;4230855;83;21045;-90
2022/02/20 16:33:17;;;;;;;14.85;6.92;;;;;;;6.04;62.58;98393.20;4202112;84;21592;-89
2022/02/20 16:39:19;;;;;;;14.93;6.37;;;;;;;5.88;63.64;98386.25;4254950;83;21073;-90
2022/02/20 16:45:22;;;;;;;13.98;5.95;;;;;;;5.78;64.59;98386.82;4270617;82;21086;-90
2022/02/20 16:51:23;;;;;;;19.07;7.40;;;;;;;5.73;66.24;98379.72;4316413;81;21001;-91
2022/02/20 16:57:27;;;;;;;17.40;6.30;;;;;;;5.70;66.35;98376.95;4232238;83;21498;-90
2022/02/20 17:03:28;;;;;;;12.95;5.87;;;;;;;5.69;66.87;98368.02;4202895;84;21123;-90
2022/02/20 17:09:29;;;;;;;11.25;4.08;;;;;;;5.66;67.01;98357.86;4195955;83;21090;-90
2022/02/20 17:15:31;;;;;;;14.40;6.45;;;;;;;5.59;66.83;98366.45;4226952;83;21594;-90
2022/02/20 17:21:33;;;;;;;17.20;6.65;;;;;;;5.58;67.02;98366.21;4226726;83;21169;-90
2022/02/20 17:27:35;;;;;;;14.95;6.15;;;;;;;5.59;67.28;98363.14;4225747;83;21113;-90
2022/02/20 17:33:37;;;;;;;15.00;5.22;;;;;;;5.62;66.90;98377.95;4106915;82;9999840;-89
2022/02/20 17:39:38;;;;;;;18.07;5.65;;;;;;;5.67;66.99;98388.53;4232009;82;21069;-91
2022/02/20 17:45:39;;;;;;;12.82;5.10;;;;;;;5.71;67.07;98383.95;4208546;83;21105;-90
2022/02/20 17:51:41;;;;;;;12.00;5.62;;;;;;;5.74;67.49;98376.44;4225152;82;21078;-89
2022/02/20 17:57:44;;;;;;;14.28;5.80;;;;;;;5.72;67.57;98367.30;4224649;82;21126;-90
2022/02/20 18:03:45;;;;;;;11.65;5.28;;;;;;;5.69;67.94;98357.15;4222322;82;21097;-89
2022/02/20 18:09:50;;;;;;;14.98;4.78;;;;;;;5.62;68.39;98342.65;4254075;82;22079;-90
2022/02/20 18:15:51;;;;;;;9.90;4.08;;;;;;;5.63;69.79;98343.65;4260404;82;21014;-90
2022/02/20 18:21:56;;;;;;;13.85;4.45;;;;;;;5.63;69.46;98335.50;4312519;80;21085;-89
2022/02/20 18:27:56;;;;;;;9.13;3.87;;;;;;;5.71;70.36;98332.34;4312147;80;21124;-89
2022/02/20 18:33:57;;;;;;;7.00;3.47;;;;;;;5.71;70.77;98330.98;4311989;80;22015;-90
2022/02/20 18:39:59;;;;;;;12.65;4.37;;;;;;;5.62;70.46;98333.15;4310716;80;21058;-90
2022/02/20 18:46:00;;;;;;;12.50;4.83;;;;;;;5.55;70.60;98330.28;4234131;82;21677;-90
2022/02/20 18:52:02;;;;;;;13.08;4.25;;;;;;;5.52;71.03;98318.78;4194062;84;21033;-91
2022/02/20 18:58:06;;;;;;;10.35;4.30;;;;;;;5.40;70.82;98312.14;4201189;83;21684;-91
2022/02/20 19:04:07;;;;;;;11.10;4.80;;;;;;;5.25;71.22;98304.83;4191484;83;21094;-89
2022/02/20 19:10:09;;;;;;;14.73;4.85;;;;;;;5.09;70.77;98308.96;4191703;83;22030;-91
2022/02/20 19:16:10;;;;;;;11.78;5.35;;;;;;;4.86;71.09;98299.94;4219773;83;21113;-89
2022/02/20 19:22:14;;;;;;;10.85;4.53;;;;;;;4.76;71.25;98302.63;4224509;83;21113;-90
2022/02/20 19:28:16;;;;;;;10.58;4.58;;;;;;;4.65;71.71;98298.12;4220601;83;22615;-90
2022/02/20 19:34:20;;;;;;;12.33;5.12;;;;;;;4.58;72.15;98297.94;4225471;82;21198;-91
2022/02/20 19:40:21;;;;;;;15.08;5.65;;;;;;;4.55;72.66;98297.29;4223998;82;21054;-90
2022/02/20 19:46:23;;;;;;;17.05;6.70;;;;;;;4.52;72.73;98290.66;4239860;82;21729;-90
2022/02/20 19:52:24;;;;;;;17.90;6.97;;;;;;;4.59;72.93;98277.26;4178695;83;22120;-90
2022/02/20 19:58:26;;;;;;;12.93;4.87;;;;;;;4.61;73.56;98269.56;4265482;81;22625;-90
2022/02/20 20:04:35;;;;;;;19.80;7.25;;;;;;;4.60;73.41;98273.98;4171228;84;21105;-89
2022/02/20 20:10:32;;;;;;;26.50;10.68;;;;;;;4.56;73.58;98273.10;4241909;82;21139;-91
2022/02/20 20:16:34;;;;;;;10.50;5.12;;;;;;;4.59;74.65;98267.77;4225380;82;21078;-90
2022/02/20 20:22:35;;;;;;;9.70;4.35;;;;;;;4.74;74.75;98256.09;4225044;82;21629;-91
2022/02/20 20:28:37;;;;;;;7.42;3.10;;;;;;;4.91;75.17;98236.49;4224709;82;21082;-89
2022/02/20 20:34:38;;;;;;;6.60;2.60;;;;;;;5.01;75.87;98232.67;4223623;83;21057;-91
2022/02/20 20:40:40;;;;;;;7.03;3.00;;;;;;;5.17;77.90;98224.45;4319893;81;21068;-90
2022/02/20 20:46:42;;;;;;;7.75;3.05;;;;;;;5.31;76.55;98223.38;4318534;80;21624;-91
2022/02/20 20:52:50;;;;;;;5.03;2.15;;;;;;;5.46;77.46;98208.92;4320216;80;21121;-90
2022/02/20 20:58:52;;;;;;;5.87;2.67;;;;;;;5.56;77.47;98196.89;4319582;80;21612;-90
2022/02/20 21:04:53;;;;;;;6.30;2.27;;;;;;;5.65;78.21;98185.80;4323133;81;21023;-90
2022/02/20 21:10:54;;;;;;;7.80;2.87;;;;;;;5.70;77.62;98190.34;4322545;81;21679;-89
2022/02/20 21:16:55;;;;;;;4.62;2.33;;;;;;;5.80;77.82;98178.09;4322900;81;21061;-90
2022/02/20 21:22:58;;;;;;;4.47;2.17;;;;;;;5.87;77.65;98178.27;4322004;81;22363;-90
2022/02/20 21:29:00;;;;;;;5.03;2.02;;;;;;;5.99;77.76;98158.48;4242761;83;21048;-90
2022/02/20 21:35:05;;;;;;;5.95;1.80;;;;;;;6.07;77.84;98143.86;4196405;84;21022;-90
2022/02/20 21:41:08;;;;;;;7.17;2.22;;;;;;;6.16;77.70;98136.22;4184452;84;20996;-89
2022/02/20 21:47:09;;;;;;;4.17;1.95;;;;;;;6.23;77.82;98126.03;4186857;84;21049;-89
2022/02/20 21:53:11;;;;;;;3.60;1.92;;;;;;;6.24;77.67;98121.59;4230941;83;21081;-90
2022/02/20 21:59:12;;;;;;;4.25;1.92;;;;;;;6.27;77.76;98106.47;4213478;83;21601;-91
2022/02/20 22:05:13;;;;;;;4.37;1.90;;;;;;;6.36;77.72;98096.10;4204128;83;21050;-90
2022/02/20 22:11:15;;;;;;;4.85;1.67;;;;;;;6.33;77.84;98092.20;4206757;83;21540;-90
2022/02/20 22:17:17;;;;;;;5.53;1.60;;;;;;;6.37;77.77;98086.22;4234371;83;21090;-90
2022/02/20 22:23:21;;;;;;;5.85;1.62;;;;;;;6.48;77.55;98072.78;4228103;83;21523;-91
2022/02/20 22:29:22;;;;;;;5.47;1.60;;;;;;;6.51;77.23;98067.96;4322599;81;21064;-93
2022/02/20 22:35:24;;;;;;;5.10;1.57;;;;;;;6.52;77.12;98045.05;4322483;81;21538;-91
2022/02/20 22:41:26;;;;;;;2.58;1.07;;;;;;;6.52;76.96;98009.70;4321779;81;21557;-90
2022/02/20 22:47:27;;;;;;;7.45;1.70;;;;;;;6.57;76.72;97989.55;4322482;81;21049;-89
2022/02/20 22:53:29;;;;;;;2.77;1.25;;;;;;;6.50;76.54;97977.25;4324605;81;21446;-91
2022/02/20 22:59:30;;;;;;;3.72;1.47;;;;;;;6.43;76.51;97979.31;4321991;81;21061;-91
2022/02/20 23:05:38;;;;;;;1.82;1.10;;;;;;;6.36;76.51;97971.06;4325828;81;21022;-92
2022/02/20 23:11:38;;;;;;;2.80;1.20;;;;;;;6.39;76.53;97958.08;4322729;81;22001;-90
2022/02/20 23:17:39;;;;;;;2.52;1.27;;;;;;;6.53;76.35;97950.67;4322518;81;21398;-89
2022/02/20 23:23:41;;;;;;;2.80;1.47;;;;;;;6.73;75.80;97932.42;4294686;81;21529;-89
2022/02/20 23:29:42;;;;;;;2.55;1.00;;;;;;;6.87;75.32;97922.23;4216578;83;21101;-91
2022/02/20 23:35:44;;;;;;;1.92;1.12;;;;;;;6.93;75.06;97921.52;4293814;82;21980;-90
2022/02/20 23:41:45;;;;;;;3.60;1.00;;;;;;;6.94;74.20;97895.11;4295055;82;21018;-91
2022/02/20 23:47:47;;;;;;;4.10;1.20;;;;;;;6.92;74.22;97894.69;4295863;81;21104;-90
2022/02/20 23:53:49;;;;;;;3.22;1.25;;;;;;;6.94;73.74;97880.14;4296346;81;21089;-90
2022/02/20 23:59:53;;;;;;;1.82;0.95;;;;;;;7.01;73.30;97865.22;4296064;82;21049;-90
